Time;durP1;ratioP1;P1;durP2;ratioP2;P2;SDS_P1;SDS_P2;PMS_P1;PMS_P2;Temp;Humidity;BMP_temperature;BMP_pressure;BME280_temperature;BME280_humidity;BME280_pressure;Samples;Min_cycle;Max_cycle;Signal;HPM_P1;HPM_P2
2022/08/09 00:00:18;;;;;;;3.67;1.77;;;25.80;99.90;;;;;;1784583;79;21191;-80
2022/08/09 00:02:49;;;;;;;6.47;2.42;;;25.80;99.90;;;;;;1801829;78;21305;-82
2022/08/09 00:05:21;;;;;;;7.40;2.87;;;25.70;99.90;;;;;;1796573;78;21598;-81
2022/08/09 00:07:53;;;;;;;5.40;2.52;;;25.80;99.90;;;;;;1789954;78;21114;-82
2022/08/09 00:10:25;;;;;;;5.83;2.58;;;25.80;99.90;;;;;;1793163;78;21645;-80
2022/08/09 00:12:56;;;;;;;5.35;1.50;;;25.80;99.90;;;;;;1778476;79;21103;-81
2022/08/09 00:15:28;;;;;;;3.58;1.92;;;25.80;99.90;;;;;;1801181;78;21107;-83
2022/08/09 00:18:00;;;;;;;3.12;2.10;;;25.80;99.90;;;;;;1792015;78;21086;-81
2022/08/09 00:20:33;;;;;;;6.83;2.15;;;25.80;99.90;;;;;;1791467;78;21196;-83
2022/08/09 00:23:04;;;;;;;5.62;1.92;;;25.80;99.90;;;;;;1796868;78;21197;-83
2022/08/09 00:25:36;;;;;;;7.08;1.90;;;25.80;99.90;;;;;;1794716;79;21157;-83
2022/08/09 00:28:08;;;;;;;6.12;1.70;;;25.80;99.90;;;;;;1793250;78;21146;-83
2022/08/09 00:30:40;;;;;;;4.97;1.80;;;25.90;99.90;;;;;;1795921;79;21150;-82
2022/08/09 00:33:11;;;;;;;8.73;1.95;;;25.80;99.90;;;;;;1806729;79;21660;-82
2022/08/09 00:35:42;;;;;;;5.17;1.60;;;25.90;99.90;;;;;;1794966;78;21192;-82
2022/08/09 00:38:14;;;;;;;3.15;2.08;;;25.90;99.90;;;;;;1796197;79;21223;-83
2022/08/09 00:40:46;;;;;;;7.53;2.42;;;25.90;99.90;;;;;;1791856;78;21198;-81
2022/08/09 00:43:20;;;;;;;4.72;2.12;;;25.90;99.90;;;;;;1788455;79;21145;-82
2022/08/09 00:45:52;;;;;;;4.67;2.17;;;25.90;99.90;;;;;;1775637;80;21201;-69
2022/08/09 00:48:24;;;;;;;8.50;2.08;;;25.90;99.90;;;;;;1780013;80;21165;-70
2022/08/09 00:50:57;;;;;;;6.40;1.95;;;25.90;99.90;;;;;;1766652;80;21149;-70
2022/08/09 00:53:28;;;;;;;3.47;2.10;;;26.00;99.90;;;;;;1747130;81;21191;-69
2022/08/09 00:55:59;;;;;;;6.70;1.70;;;26.00;99.90;;;;;;1742472;82;21244;-70
2022/08/09 00:58:34;;;;;;;4.67;1.70;;;26.00;99.90;;;;;;1786283;79;21224;-70
2022/08/09 01:01:07;;;;;;;10.05;1.82;;;26.00;99.90;;;;;;1778799;79;21171;-71
2022/08/09 01:03:42;;;;;;;4.53;2.27;;;26.00;99.90;;;;;;1777325;80;21072;-70
2022/08/09 01:06:17;;;;;;;5.85;2.00;;;26.00;99.90;;;;;;1779940;80;21162;-71
2022/08/09 01:08:51;;;;;;;4.17;2.12;;;26.00;99.90;;;;;;1784355;79;21078;-70
2022/08/09 01:11:24;;;;;;;5.03;1.80;;;26.00;99.90;;;;;;1779571;79;21236;-70
2022/08/09 01:13:58;;;;;;;3.12;1.32;;;26.00;99.90;;;;;;1777432;80;21199;-68
2022/08/09 01:16:32;;;;;;;3.65;1.60;;;26.10;99.90;;;;;;1784940;79;21142;-71
2022/08/09 01:19:07;;;;;;;5.40;1.60;;;26.10;99.90;;;;;;1787160;79;21626;-68
2022/08/09 01:21:42;;;;;;;3.35;1.50;;;26.10;99.90;;;;;;1775483;79;21159;-69
2022/08/09 01:24:17;;;;;;;6.15;1.65;;;26.10;99.90;;;;;;1780808;80;21132;-69
2022/08/09 01:26:51;;;;;;;5.67;2.00;;;26.10;99.90;;;;;;1778170;79;21488;-70
2022/08/09 01:29:25;;;;;;;11.00;2.10;;;26.10;99.90;;;;;;1781766;80;21196;-70
2022/08/09 01:31:59;;;;;;;2.87;1.75;;;26.10;99.90;;;;;;1761240;79;21147;-70
2022/08/09 01:34:34;;;;;;;6.53;1.62;;;26.10;99.90;;;;;;1719783;82;21138;-71
2022/08/09 01:37:08;;;;;;;2.83;1.50;;;26.10;99.90;;;;;;1774125;79;21669;-69
2022/08/09 01:39:42;;;;;;;6.55;1.60;;;26.10;99.90;;;;;;1760544;79;21196;-69
2022/08/09 01:42:15;;;;;;;3.65;1.52;;;26.10;99.90;;;;;;1730420;81;21218;-70
2022/08/09 01:44:47;;;;;;;5.70;1.70;;;26.20;99.90;;;;;;1744378;79;22178;-71
2022/08/09 01:47:20;;;;;;;4.87;1.70;;;26.20;99.90;;;;;;1733165;81;21178;-69
2022/08/09 01:49:52;;;;;;;3.52;1.50;;;26.20;99.90;;;;;;1699269;83;21268;-70
2022/08/09 01:52:24;;;;;;;5.83;2.00;;;26.20;99.90;;;;;;1750878;80;21199;-70
2022/08/09 01:54:59;;;;;;;4.30;1.62;;;26.20;99.90;;;;;;1761327;80;21274;-68
2022/08/09 01:57:36;;;;;;;5.20;1.62;;;26.30;99.90;;;;;;1762263;79;21213;-70
2022/08/09 02:00:08;;;;;;;7.00;1.70;;;26.30;99.90;;;;;;1783093;79;21076;-70
2022/08/09 02:02:43;;;;;;;2.25;1.30;;;26.30;99.90;;;;;;1770471;79;21202;-70
2022/08/09 02:05:16;;;;;;;3.80;1.40;;;26.30;99.90;;;;;;1762955;78;21637;-70
2022/08/09 02:07:50;;;;;;;5.45;1.42;;;26.30;99.90;;;;;;1747598;80;21694;-70
2022/08/09 02:10:24;;;;;;;5.33;1.72;;;26.40;99.90;;;;;;1760353;80;21253;-70
2022/08/09 02:12:58;;;;;;;5.97;1.40;;;26.40;99.90;;;;;;1758346;81;21213;-70
2022/08/09 02:15:31;;;;;;;3.58;1.30;;;26.30;99.90;;;;;;1747807;80;21127;-69
2022/08/09 02:18:05;;;;;;;4.35;1.50;;;26.30;99.90;;;;;;1746171;80;21202;-70
2022/08/09 02:20:39;;;;;;;2.02;1.20;;;26.30;99.90;;;;;;1756061;80;21228;-68
2022/08/09 02:23:14;;;;;;;4.72;1.35;;;26.30;99.90;;;;;;1762363;80;21198;-69
2022/08/09 02:25:48;;;;;;;5.50;1.40;;;26.30;99.90;;;;;;1763941;79;21597;-69
2022/08/09 02:28:22;;;;;;;4.05;2.00;;;26.40;99.90;;;;;;1754946;81;21635;-69
2022/08/09 02:30:56;;;;;;;8.70;5.95;;;26.30;99.90;;;;;;1752585;80;21182;-70
2022/08/09 02:33:30;;;;;;;12.82;7.40;;;26.40;99.90;;;;;;1776481;79;21108;-70
2022/08/09 02:36:04;;;;;;;5.78;4.05;;;26.40;99.90;;;;;;1796552;78;21158;-69
2022/08/09 02:38:39;;;;;;;12.10;6.62;;;26.50;99.90;;;;;;1765391;81;21126;-69
2022/08/09 02:41:14;;;;;;;11.00;6.20;;;26.50;99.90;;;;;;1785498;80;21202;-70
2022/08/09 02:43:47;;;;;;;12.68;8.73;;;26.60;99.90;;;;;;1774941;81;21206;-69
2022/08/09 02:46:20;;;;;;;8.58;4.40;;;26.60;99.90;;;;;;1764177;80;21209;-68
2022/08/09 02:48:55;;;;;;;8.08;4.78;;;26.70;99.90;;;;;;1762669;80;21233;-69
2022/08/09 02:51:29;;;;;;;8.45;5.17;;;26.70;99.90;;;;;;1758032;80;21174;-70
2022/08/09 02:54:04;;;;;;;5.37;2.85;;;26.80;99.90;;;;;;1755327;80;21194;-70
2022/08/09 02:56:40;;;;;;;7.85;4.28;;;26.90;99.90;;;;;;1760292;80;21264;-70
2022/08/09 02:59:13;;;;;;;10.23;3.62;;;26.90;99.90;;;;;;1755684;80;21529;-71
2022/08/09 03:01:46;;;;;;;6.92;4.28;;;27.00;99.90;;;;;;1755570;80;21099;-70
2022/08/09 03:04:19;;;;;;;6.40;3.67;;;27.00;99.90;;;;;;1756754;80;21217;-70
2022/08/09 03:06:52;;;;;;;6.78;3.75;;;27.10;99.90;;;;;;1757174;80;21103;-69
2022/08/09 03:09:24;;;;;;;5.35;2.92;;;27.20;99.90;;;;;;1758097;80;21257;-69
2022/08/09 03:12:00;;;;;;;4.75;1.70;;;27.30;99.90;;;;;;1755941;80;21202;-68
2022/08/09 03:14:33;;;;;;;4.15;2.50;;;27.30;99.90;;;;;;1757282;80;21125;-69
2022/08/09 03:17:05;;;;;;;7.22;2.25;;;27.40;99.90;;;;;;1757666;80;21281;-70
2022/08/09 03:19:40;;;;;;;3.85;1.62;;;27.50;99.90;;;;;;1773187;80;21080;-69
2022/08/09 03:22:14;;;;;;;4.25;1.80;;;27.50;99.90;;;;;;1784403;79;21190;-69
2022/08/09 03:24:46;;;;;;;4.17;2.15;;;27.60;99.90;;;;;;1753261;81;21111;-68
2022/08/09 03:27:19;;;;;;;3.33;1.10;;;27.70;99.90;;;;;;1749858;82;21163;-69
2022/08/09 03:29:52;;;;;;;5.35;1.47;;;27.70;99.90;;;;;;1727310;83;21205;-69
2022/08/09 03:32:25;;;;;;;3.15;1.12;;;27.70;99.90;;;;;;1727882;82;21708;-69
2022/08/09 03:34:56;;;;;;;3.35;1.35;;;27.80;99.90;;;;;;1729189;83;21130;-70
2022/08/09 03:37:28;;;;;;;4.25;1.50;;;27.80;99.90;;;;;;1750497;81;21190;-71
2022/08/09 03:40:00;;;;;;;3.33;1.35;;;27.90;99.90;;;;;;1752534;81;21225;-69
2022/08/09 03:42:33;;;;;;;7.40;1.20;;;27.90;99.90;;;;;;1744098;81;21285;-70
2022/08/09 03:45:05;;;;;;;3.30;1.30;;;27.90;99.90;;;;;;1731653;83;21181;-69
2022/08/09 03:47:36;;;;;;;4.50;1.35;;;27.90;99.90;;;;;;1735137;82;21175;-70
2022/08/09 03:50:10;;;;;;;3.17;1.22;;;27.90;99.90;;;;;;1753536;82;21329;-69
2022/08/09 03:52:43;;;;;;;2.37;1.10;;;27.90;99.90;;;;;;1736478;82;21214;-69
2022/08/09 03:55:15;;;;;;;3.83;1.30;;;28.00;99.90;;;;;;1728306;82;21249;-70
2022/08/09 03:57:49;;;;;;;5.92;1.40;;;28.00;99.90;;;;;;1739622;82;21163;-70
2022/08/09 04:00:20;;;;;;;4.60;1.10;;;28.00;99.90;;;;;;1724317;82;21170;-70
2022/08/09 04:02:53;;;;;;;4.08;0.98;;;28.00;99.90;;;;;;1746580;82;21120;-71
2022/08/09 04:05:26;;;;;;;4.50;1.22;;;28.00;99.90;;;;;;1754900;82;21661;-69
2022/08/09 04:07:58;;;;;;;3.25;1.10;;;28.10;99.90;;;;;;1744733;81;21570;-70
2022/08/09 04:10:29;;;;;;;4.62;1.20;;;28.10;99.90;;;;;;1738909;82;21198;-69
2022/08/09 04:13:08;;;;;;;2.85;1.10;;;28.10;99.90;;;;;;1732955;82;21170;-69
2022/08/09 04:15:33;;;;;;;3.77;1.47;;;28.10;99.90;;;;;;1743736;80;21154;-69
2022/08/09 04:18:06;;;;;;;3.98;1.50;;;28.20;99.90;;;;;;1738554;80;21209;-69
2022/08/09 04:20:39;;;;;;;3.45;1.50;;;28.30;99.90;;;;;;1745576;82;21776;-69
2022/08/09 04:23:10;;;;;;;2.42;1.30;;;28.40;99.90;;;;;;1742712;81;21744;-68
2022/08/09 04:25:42;;;;;;;4.95;1.80;;;28.40;99.90;;;;;;1746230;81;21147;-69
2022/08/09 04:28:15;;;;;;;4.90;1.50;;;28.50;99.90;;;;;;1747440;82;21253;-70
2022/08/09 04:30:47;;;;;;;5.90;1.32;;;28.60;99.90;;;;;;1736938;80;21287;-70
2022/08/09 04:33:18;;;;;;;2.52;1.57;;;28.60;99.90;;;;;;1769401;80;21124;-69
2022/08/09 04:35:51;;;;;;;3.45;1.20;;;28.70;99.90;;;;;;1786619;80;21174;-70
2022/08/09 04:38:32;;;;;;;2.83;1.20;;;28.80;99.90;;;;;;1787970;80;21743;-69
2022/08/09 04:41:04;;;;;;;5.75;1.02;;;28.80;99.90;;;;;;1787491;80;21150;-69
2022/08/09 04:43:37;;;;;;;6.85;1.65;;;28.80;99.90;;;;;;1783955;80;21173;-69
2022/08/09 04:46:10;;;;;;;4.47;1.10;;;28.80;99.90;;;;;;1779490;79;21189;-68
2022/08/09 04:48:42;;;;;;;3.10;1.10;;;28.70;99.90;;;;;;1774269;80;21249;-70
2022/08/09 04:51:15;;;;;;;1.98;1.05;;;28.70;99.90;;;;;;1770100;80;21548;-70
2022/08/09 04:53:47;;;;;;;4.08;1.40;;;28.80;99.90;;;;;;1782016;80;21111;-69
2022/08/09 04:56:20;;;;;;;2.77;1.05;;;28.80;99.90;;;;;;1781249;79;21294;-68
2022/08/09 04:58:52;;;;;;;2.83;0.70;;;28.90;99.90;;;;;;1776458;80;21178;-69
2022/08/09 05:01:24;;;;;;;3.42;0.85;;;29.00;99.90;;;;;;1779433;80;21762;-69
2022/08/09 05:03:55;;;;;;;4.33;1.60;;;29.10;99.90;;;;;;1781818;80;21169;-70
2022/08/09 05:06:27;;;;;;;2.22;0.80;;;29.20;99.00;;;;;;1777611;80;21595;-68
2022/08/09 05:08:59;;;;;;;1.87;0.62;;;29.30;98.50;;;;;;1774183;80;21292;-69
2022/08/09 05:11:30;;;;;;;2.05;0.60;;;29.40;98.10;;;;;;1776475;80;21221;-69
2022/08/09 05:14:04;;;;;;;0.55;0.23;;;29.50;97.70;;;;;;1795067;79;21213;-68
2022/08/09 05:16:37;;;;;;;2.72;0.50;;;29.70;96.50;;;;;;1749302;80;21099;-68
2022/08/09 05:19:09;;;;;;;4.58;0.70;;;29.70;96.90;;;;;;1762062;80;21948;-68
2022/08/09 05:21:43;;;;;;;1.60;0.53;;;29.80;97.10;;;;;;1751766;80;21120;-70
2022/08/09 05:24:16;;;;;;;2.55;0.90;;;29.90;96.50;;;;;;1758735;80;21154;-69
2022/08/09 05:26:47;;;;;;;3.45;0.85;;;30.00;96.20;;;;;;1787519;79;21674;-69
2022/08/09 05:29:19;;;;;;;2.80;0.70;;;30.10;95.90;;;;;;1778831;80;21721;-71
2022/08/09 05:31:53;;;;;;;1.60;0.72;;;30.20;95.90;;;;;;1776882;80;21638;-69
2022/08/09 05:34:26;;;;;;;1.32;0.70;;;30.20;95.90;;;;;;1778398;80;21104;-68
2022/08/09 05:37:00;;;;;;;2.20;0.80;;;30.20;95.80;;;;;;1777395;79;21130;-69
2022/08/09 05:39:33;;;;;;;1.40;0.60;;;30.20;95.80;;;;;;1789567;79;21120;-69
2022/08/09 05:42:05;;;;;;;2.05;0.75;;;30.20;95.80;;;;;;1793937;79;21203;-68
2022/08/09 05:44:37;;;;;;;2.40;0.80;;;30.20;95.60;;;;;;1784948;80;21185;-69
2022/08/09 05:47:08;;;;;;;3.10;0.85;;;30.20;95.50;;;;;;1713711;82;21193;-68
2022/08/09 05:49:39;;;;;;;2.42;1.10;;;30.20;95.50;;;;;;1751357;81;21179;-68
2022/08/09 05:52:14;;;;;;;3.70;1.07;;;30.20;95.40;;;;;;1778448;80;21232;-70
2022/08/09 05:54:45;;;;;;;1.92;1.00;;;30.30;95.80;;;;;;1781144;80;21163;-70
2022/08/09 05:57:26;;;;;;;2.83;1.00;;;30.30;95.60;;;;;;1778426;80;21834;-70
2022/08/09 05:59:59;;;;;;;2.87;1.35;;;30.20;95.50;;;;;;1778426;79;21244;-70
2022/08/09 06:02:30;;;;;;;4.22;1.50;;;30.10;95.60;;;;;;1792126;78;21658;-69
2022/08/09 06:05:03;;;;;;;2.42;1.37;;;30.00;96.10;;;;;;1770560;80;21231;-72
2022/08/09 06:07:35;;;;;;;5.03;1.50;;;30.00;95.90;;;;;;1753597;80;21168;-69
2022/08/09 06:10:07;;;;;;;2.62;0.95;;;29.90;95.90;;;;;;1789226;79;21673;-69
2022/08/09 06:12:39;;;;;;;2.90;1.00;;;30.00;96.10;;;;;;1786168;77;21613;-70
2022/08/09 06:15:11;;;;;;;4.15;0.90;;;30.00;95.60;;;;;;1765468;80;21571;-69
2022/08/09 06:17:42;;;;;;;3.08;0.82;;;29.90;95.80;;;;;;1758054;80;21710;-69
2022/08/09 06:20:15;;;;;;;2.25;1.00;;;29.90;96.20;;;;;;1774038;80;21212;-69
2022/08/09 06:22:46;;;;;;;1.92;1.00;;;29.90;95.70;;;;;;1792982;79;21076;-70
2022/08/09 06:25:18;;;;;;;2.52;0.85;;;29.90;95.90;;;;;;1790855;79;21678;-69
2022/08/09 06:27:50;;;;;;;2.62;0.65;;;29.90;95.70;;;;;;1791497;79;21544;-70
2022/08/09 06:30:21;;;;;;;4.53;0.80;;;29.80;96.00;;;;;;1797356;79;21151;-69
2022/08/09 06:32:52;;;;;;;3.05;1.00;;;29.80;95.90;;;;;;1773159;80;21181;-70
2022/08/09 06:35:24;;;;;;;3.35;1.10;;;29.80;96.20;;;;;;1732502;82;21234;-69
2022/08/09 06:37:56;;;;;;;1.85;0.90;;;29.70;95.90;;;;;;1764357;80;21193;-68
2022/08/09 06:40:28;;;;;;;1.50;0.80;;;29.60;96.10;;;;;;1714097;82;21155;-69
2022/08/09 06:43:01;;;;;;;3.85;0.85;;;29.60;96.00;;;;;;1780016;79;21288;-68
2022/08/09 06:45:34;;;;;;;3.05;0.78;;;29.60;96.50;;;;;;1777396;80;21202;-69
2022/08/09 06:48:06;;;;;;;1.92;0.90;;;29.50;96.50;;;;;;1757420;80;21143;-70
2022/08/09 06:50:38;;;;;;;2.12;0.82;;;29.50;96.70;;;;;;1763054;81;21756;-68
2022/08/09 06:53:09;;;;;;;2.17;1.20;;;29.50;96.80;;;;;;1748982;82;21164;-70
2022/08/09 06:55:41;;;;;;;1.72;0.90;;;29.50;96.90;;;;;;1786931;80;21144;-71
2022/08/09 06:58:13;;;;;;;2.52;0.78;;;29.50;96.80;;;;;;1782182;79;21557;-70
2022/08/09 07:00:46;;;;;;;3.00;0.70;;;29.50;96.80;;;;;;1778958;80;21316;-69
2022/08/09 07:03:18;;;;;;;2.37;0.80;;;29.40;97.30;;;;;;1781954;79;21213;-69
2022/08/09 07:05:50;;;;;;;2.92;0.90;;;29.50;97.10;;;;;;1777148;79;21241;-69
2022/08/09 07:08:23;;;;;;;2.60;0.80;;;29.40;97.10;;;;;;1779614;80;21113;-70
2022/08/09 07:10:55;;;;;;;3.10;1.17;;;29.40;96.90;;;;;;1778663;80;21221;-70
2022/08/09 07:13:27;;;;;;;2.10;1.00;;;29.40;97.10;;;;;;1785166;80;21688;-70
2022/08/09 07:15:59;;;;;;;3.22;0.60;;;29.40;97.00;;;;;;1788759;79;21623;-69
2022/08/09 07:18:31;;;;;;;2.15;0.80;;;29.50;97.00;;;;;;1779971;80;21182;-70
2022/08/09 07:21:02;;;;;;;2.25;1.05;;;29.40;96.80;;;;;;1781842;80;21575;-70
2022/08/09 07:23:34;;;;;;;3.27;1.32;;;29.40;96.70;;;;;;1780544;80;21226;-71
2022/08/09 07:26:09;;;;;;;2.12;0.95;;;29.50;96.60;;;;;;1774535;79;21282;-69
2022/08/09 07:28:40;;;;;;;2.22;0.90;;;29.50;96.70;;;;;;1778712;80;21112;-71
2022/08/09 07:31:13;;;;;;;2.95;1.10;;;29.50;96.40;;;;;;1776458;79;21189;-71
2022/08/09 07:33:44;;;;;;;2.37;1.20;;;29.50;96.50;;;;;;1785946;80;22214;-70
2022/08/09 07:36:17;;;;;;;3.12;1.10;;;29.50;96.70;;;;;;1786256;79;21815;-69
2022/08/09 07:38:47;;;;;;;2.90;1.10;;;29.50;96.50;;;;;;1786754;79;21229;-69
2022/08/09 07:41:20;;;;;;;3.75;1.52;;;29.50;96.70;;;;;;1786977;80;21801;-70
2022/08/09 07:43:51;;;;;;;4.20;1.90;;;29.50;96.30;;;;;;1790996;79;21151;-69
2022/08/09 07:46:23;;;;;;;4.90;1.57;;;29.50;96.40;;;;;;1794242;79;21104;-69
2022/08/09 07:48:56;;;;;;;4.03;1.25;;;29.50;96.60;;;;;;1777879;79;21147;-70
2022/08/09 07:51:28;;;;;;;2.12;0.70;;;29.50;96.30;;;;;;1765437;80;21186;-69
2022/08/09 07:54:03;;;;;;;1.92;0.90;;;29.50;96.10;;;;;;1765619;80;21178;-70
2022/08/09 07:56:37;;;;;;;3.62;0.82;;;29.50;96.30;;;;;;1771632;80;21200;-70
2022/08/09 07:59:09;;;;;;;2.10;0.90;;;29.50;96.50;;;;;;1763689;80;21126;-70
2022/08/09 08:01:42;;;;;;;4.62;0.93;;;29.50;96.60;;;;;;1766119;80;21198;-69
2022/08/09 08:04:14;;;;;;;2.42;1.00;;;29.50;96.70;;;;;;1770403;80;21204;-69
2022/08/09 08:06:45;;;;;;;2.77;1.00;;;29.50;96.70;;;;;;1772484;80;21100;-68
2022/08/09 08:09:18;;;;;;;2.45;0.80;;;29.50;96.80;;;;;;1776588;80;21170;-69
2022/08/09 08:11:50;;;;;;;1.45;0.75;;;29.60;96.70;;;;;;1759497;80;21102;-68
2022/08/09 08:14:22;;;;;;;3.33;0.70;;;29.60;96.70;;;;;;1757202;80;21095;-69
2022/08/09 08:16:54;;;;;;;1.70;0.80;;;29.60;96.40;;;;;;1767556;80;21146;-69
2022/08/09 08:19:26;;;;;;;1.02;0.45;;;29.70;96.50;;;;;;1770382;80;21161;-70
2022/08/09 08:21:59;;;;;;;1.10;0.40;;;29.70;96.10;;;;;;1764832;80;21180;-70
2022/08/09 08:24:30;;;;;;;2.42;1.20;;;29.70;95.80;;;;;;1762850;80;21131;-71
2022/08/09 08:27:02;;;;;;;3.12;0.80;;;29.70;96.20;;;;;;1767729;80;21174;-70
2022/08/09 08:29:34;;;;;;;2.15;0.70;;;29.70;96.20;;;;;;1784827;80;21182;-70
2022/08/09 08:32:07;;;;;;;3.80;0.70;;;29.70;96.00;;;;;;1784805;79;21286;-69
2022/08/09 08:34:39;;;;;;;2.10;0.78;;;29.70;95.80;;;;;;1778861;80;21241;-69
2022/08/09 08:37:11;;;;;;;1.20;0.60;;;29.70;96.10;;;;;;1764029;80;21174;-70
2022/08/09 08:39:45;;;;;;;3.22;0.85;;;29.70;96.00;;;;;;1775591;80;21073;-69
2022/08/09 08:42:16;;;;;;;3.22;0.90;;;29.80;96.30;;;;;;1783810;80;21297;-70
2022/08/09 08:44:51;;;;;;;1.80;0.70;;;29.80;96.20;;;;;;1765175;79;21188;-71
2022/08/09 08:47:24;;;;;;;3.62;0.80;;;29.80;96.00;;;;;;1760075;80;21586;-70
2022/08/09 08:49:58;;;;;;;1.17;0.65;;;29.80;95.90;;;;;;1779348;79;21147;-70
2022/08/09 08:52:30;;;;;;;3.87;0.90;;;29.80;95.80;;;;;;1783770;79;21573;-70
2022/08/09 08:55:03;;;;;;;2.83;0.78;;;29.80;96.00;;;;;;1782400;79;21143;-71
2022/08/09 08:57:35;;;;;;;2.00;0.60;;;29.80;95.90;;;;;;1776679;80;21135;-70
2022/08/09 09:00:09;;;;;;;1.75;0.70;;;29.80;95.80;;;;;;1781405;80;21234;-70
2022/08/09 09:02:43;;;;;;;4.12;1.80;;;29.80;95.90;;;;;;1780077;80;21257;-71
2022/08/09 09:05:18;;;;;;;3.02;1.05;;;29.80;96.00;;;;;;1779524;80;21570;-70
2022/08/09 09:07:52;;;;;;;2.60;0.98;;;29.80;96.10;;;;;;1782461;80;21253;-70
2022/08/09 09:10:26;;;;;;;3.20;0.60;;;29.80;96.30;;;;;;1781262;80;21183;-70
2022/08/09 09:12:57;;;;;;;2.65;0.68;;;29.90;96.50;;;;;;1777814;80;21199;-70
2022/08/09 09:15:30;;;;;;;2.10;0.82;;;29.80;96.00;;;;;;1782611;80;21275;-70
2022/08/09 09:18:01;;;;;;;2.80;1.00;;;29.80;96.20;;;;;;1779165;80;21233;-71
2022/08/09 09:20:35;;;;;;;2.75;1.07;;;29.90;96.40;;;;;;1780476;80;21162;-70
2022/08/09 09:23:06;;;;;;;3.85;1.12;;;29.80;96.50;;;;;;1780897;80;21701;-70
2022/08/09 09:25:41;;;;;;;1.55;0.70;;;29.80;96.30;;;;;;1786058;80;21330;-69
2022/08/09 09:28:13;;;;;;;3.83;0.80;;;29.80;96.30;;;;;;1783020;80;21244;-70
2022/08/09 09:30:48;;;;;;;1.70;0.78;;;29.80;96.30;;;;;;1785334;80;21171;-70
2022/08/09 09:33:19;;;;;;;2.05;0.60;;;29.80;96.30;;;;;;1783970;80;21230;-70
2022/08/09 09:35:53;;;;;;;2.05;0.60;;;29.80;96.50;;;;;;1783527;80;21246;-70
2022/08/09 09:38:28;;;;;;;3.55;0.80;;;29.90;96.80;;;;;;1784851;80;21142;-69
2022/08/09 09:41:01;;;;;;;2.50;0.98;;;30.00;97.10;;;;;;1777908;80;21186;-69
2022/08/09 09:43:33;;;;;;;5.10;0.90;;;30.00;97.20;;;;;;1780765;80;21269;-70
2022/08/09 09:46:05;;;;;;;2.92;0.90;;;30.10;97.00;;;;;;1779157;79;21161;-70
2022/08/09 09:48:38;;;;;;;3.83;1.45;;;30.10;97.30;;;;;;1779315;80;21434;-70
2022/08/09 09:51:10;;;;;;;3.60;1.15;;;30.10;98.00;;;;;;1783448;79;21237;-70
2022/08/09 09:53:43;;;;;;;2.75;0.90;;;30.00;97.90;;;;;;1775072;80;21222;-70
2022/08/09 09:56:15;;;;;;;4.95;1.30;;;29.90;97.90;;;;;;1777569;80;21187;-69
2022/08/09 09:58:49;;;;;;;2.00;1.07;;;29.80;98.10;;;;;;1769143;81;21813;-70
2022/08/09 10:01:22;;;;;;;1.95;0.90;;;29.70;98.10;;;;;;1774825;81;21150;-70
2022/08/09 10:03:55;;;;;;;2.83;0.95;;;29.70;98.30;;;;;;1782863;80;21238;-70
2022/08/09 10:06:30;;;;;;;2.50;0.88;;;29.60;98.40;;;;;;1774977;81;21902;-70
2022/08/09 10:09:04;;;;;;;2.12;1.10;;;29.60;98.30;;;;;;1774797;80;21174;-70
2022/08/09 10:11:36;;;;;;;3.02;1.30;;;29.50;98.30;;;;;;1769137;81;21254;-69
2022/08/09 10:14:11;;;;;;;4.50;0.93;;;29.40;98.50;;;;;;1768805;81;21175;-70
2022/08/09 10:16:44;;;;;;;2.67;1.05;;;29.40;98.50;;;;;;1768280;81;21202;-70
2022/08/09 10:19:16;;;;;;;4.78;1.17;;;29.30;98.60;;;;;;1769310;81;21242;-70
2022/08/09 10:21:51;;;;;;;5.05;1.05;;;29.30;98.70;;;;;;1783723;80;21215;-70
2022/08/09 10:24:22;;;;;;;4.97;1.42;;;29.30;98.80;;;;;;1778325;81;21629;-69
2022/08/09 10:26:56;;;;;;;2.62;0.98;;;29.30;98.80;;;;;;1782949;80;21571;-70
2022/08/09 10:29:28;;;;;;;3.00;1.20;;;29.20;98.80;;;;;;1774461;79;21233;-71
2022/08/09 10:32:00;;;;;;;5.42;0.95;;;29.20;97.90;;;;;;1780105;80;21225;-70
2022/08/09 10:34:34;;;;;;;2.12;1.00;;;29.10;96.90;;;;;;1774197;81;21187;-69
2022/08/09 10:37:05;;;;;;;5.20;1.20;;;28.90;96.80;;;;;;1782859;80;21166;-69
2022/08/09 10:39:39;;;;;;;1.70;1.00;;;28.70;97.30;;;;;;1777686;81;21230;-71
2022/08/09 10:42:12;;;;;;;2.80;1.30;;;28.60;97.30;;;;;;1770983;81;21096;-71
2022/08/09 10:44:46;;;;;;;4.17;1.60;;;28.40;97.20;;;;;;1772797;81;21520;-71
2022/08/09 10:47:19;;;;;;;3.75;1.27;;;28.20;97.70;;;;;;1770919;81;21116;-71
2022/08/09 10:49:54;;;;;;;5.10;1.75;;;28.10;97.00;;;;;;1769063;79;21179;-71
2022/08/09 10:52:29;;;;;;;6.80;1.25;;;27.90;97.50;;;;;;1771942;81;21174;-70
2022/08/09 10:55:04;;;;;;;8.98;1.75;;;27.80;98.30;;;;;;1770776;81;21180;-69
2022/08/09 10:57:36;;;;;;;2.75;1.30;;;27.60;99.20;;;;;;1770278;81;21113;-70
2022/08/09 11:00:11;;;;;;;5.95;2.22;;;27.30;99.40;;;;;;1777164;80;21259;-69
2022/08/09 11:02:43;;;;;;;5.80;1.27;;;27.10;99.90;;;;;;1779591;80;21170;-69
2022/08/09 11:05:18;;;;;;;4.97;1.32;;;26.80;99.90;;;;;;1773773;80;21175;-70
2022/08/09 11:07:51;;;;;;;6.95;1.52;;;26.60;99.90;;;;;;1774968;80;21119;-70
2022/08/09 11:10:26;;;;;;;2.92;1.10;;;26.40;99.90;;;;;;1779044;80;21132;-70
2022/08/09 11:13:01;;;;;;;5.78;1.40;;;26.30;99.90;;;;;;1775823;80;21191;-71
2022/08/09 11:15:32;;;;;;;4.10;1.05;;;26.20;99.90;;;;;;1776929;80;22119;-70
2022/08/09 11:18:05;;;;;;;3.83;1.30;;;26.20;99.90;;;;;;1777094;80;21234;-70
2022/08/09 11:20:39;;;;;;;3.70;1.98;;;26.10;99.90;;;;;;1778193;79;21194;-70
2022/08/09 11:23:12;;;;;;;4.45;1.75;;;26.10;99.90;;;;;;1778274;80;21181;-70
2022/08/09 11:25:46;;;;;;;5.20;1.85;;;26.10;99.90;;;;;;1772253;79;21111;-71
2022/08/09 11:28:20;;;;;;;6.62;1.70;;;26.00;99.90;;;;;;1772193;81;21132;-69
2022/08/09 11:30:52;;;;;;;4.58;2.08;;;26.00;99.90;;;;;;1769174;81;21194;-70
2022/08/09 11:33:26;;;;;;;4.33;1.90;;;26.00;99.90;;;;;;1772247;81;21225;-68
2022/08/09 11:36:00;;;;;;;5.03;2.30;;;26.00;99.90;;;;;;1752066;81;21189;-80
2022/08/09 11:38:34;;;;;;;2.90;1.72;;;26.00;99.90;;;;;;1750970;82;21182;-82
2022/08/09 11:41:09;;;;;;;5.03;1.80;;;26.10;99.90;;;;;;1772434;80;21194;-80
2022/08/09 11:43:50;;;;;;;4.97;1.72;;;26.10;99.90;;;;;;1775496;79;21253;-80
2022/08/09 11:46:22;;;;;;;4.90;1.65;;;26.10;99.90;;;;;;1725491;83;21198;-81
2022/08/09 11:48:58;;;;;;;3.70;1.50;;;26.20;99.90;;;;;;1719605;83;21108;-81
2022/08/09 11:51:34;;;;;;;3.40;1.50;;;26.20;99.90;;;;;;1719871;82;21296;-80
2022/08/09 11:54:07;;;;;;;4.37;1.85;;;26.20;99.90;;;;;;1722243;83;21190;-81
2022/08/09 11:56:40;;;;;;;3.90;1.52;;;26.20;99.90;;;;;;1725159;83;21173;-80
2022/08/09 11:59:15;;;;;;;3.92;1.85;;;26.30;99.90;;;;;;1730451;83;21182;-82
2022/08/09 12:01:49;;;;;;;4.78;1.67;;;26.30;99.90;;;;;;1725332;83;21353;-82
2022/08/09 12:04:22;;;;;;;3.05;1.35;;;26.30;99.90;;;;;;1723821;82;21143;-83
2022/08/09 12:06:56;;;;;;;5.62;1.80;;;26.30;99.90;;;;;;1724887;83;21225;-82
2022/08/09 12:09:33;;;;;;;2.83;1.60;;;26.30;99.90;;;;;;1726543;81;21159;-82
2022/08/09 12:12:08;;;;;;;4.35;1.60;;;26.40;99.90;;;;;;1725690;83;21294;-83
2022/08/09 12:14:38;;;;;;;4.83;1.82;;;26.50;99.90;;;;;;1725744;82;21185;-81
2022/08/09 12:17:12;;;;;;;6.75;2.50;;;26.50;99.90;;;;;;1744295;80;21163;-80
2022/08/09 12:19:45;;;;;;;6.85;2.42;;;26.60;99.90;;;;;;1781591;80;21187;-81
2022/08/09 12:22:22;;;;;;;5.70;3.30;;;26.60;99.90;;;;;;1778796;80;21154;-82
2022/08/09 12:24:57;;;;;;;5.62;3.60;;;26.60;99.90;;;;;;1780469;80;21112;-81
2022/08/09 12:27:32;;;;;;;4.95;3.25;;;26.60;99.90;;;;;;1780168;80;21131;-81
2022/08/09 12:30:08;;;;;;;8.98;3.00;;;26.60;99.90;;;;;;1787815;79;21276;-81
2022/08/09 12:32:40;;;;;;;5.33;2.50;;;26.60;99.90;;;;;;1791120;79;21279;-81
2022/08/09 12:35:13;;;;;;;3.67;1.72;;;26.60;99.90;;;;;;1781675;79;21642;-82
2022/08/09 12:37:50;;;;;;;3.45;1.52;;;26.60;99.90;;;;;;1799956;79;21061;-82
2022/08/09 12:40:41;;;;;;;3.67;1.50;;;26.60;99.90;;;;;;1781043;80;21093;-86
2022/08/09 12:43:22;;;;;;;4.33;1.87;;;26.60;99.90;;;;;;1774488;79;21174;-84
2022/08/09 12:45:59;;;;;;;4.83;2.22;;;26.60;99.90;;;;;;1780150;79;21170;-85
2022/08/09 12:48:58;;;;;;;4.65;2.65;;;26.60;99.90;;;;;;1777870;79;21147;-84
2022/08/09 12:52:01;;;;;;;7.95;2.42;;;26.60;99.90;;;;;;1781675;78;21244;-84
2022/08/09 12:54:27;;;;;;;4.40;2.70;;;26.70;99.90;;;;;;1785072;79;21171;-85
2022/08/09 12:57:08;;;;;;;6.28;3.90;;;26.70;99.90;;;;;;1767245;79;21141;-86
2022/08/09 12:59:45;;;;;;;5.42;3.12;;;26.70;99.90;;;;;;1793852;79;21178;-85
2022/08/09 13:02:24;;;;;;;6.03;3.55;;;26.70;99.90;;;;;;1785343;79;21168;-86
2022/08/09 13:05:07;;;;;;;6.10;3.02;;;26.80;99.90;;;;;;1784705;79;21170;-85
2022/08/09 13:07:42;;;;;;;5.37;2.80;;;26.80;99.90;;;;;;1793194;79;21119;-85
2022/08/09 13:10:15;;;;;;;7.10;2.95;;;26.90;99.90;;;;;;1785672;79;21146;-85
2022/08/09 13:12:59;;;;;;;6.12;2.75;;;26.90;99.90;;;;;;1802818;79;21088;-84
2022/08/09 13:15:31;;;;;;;5.08;3.00;;;26.90;99.90;;;;;;1784824;78;21124;-84